TimeCST,TemperatureF,Dew PointF,Humidity,Sea Level PressureIn,VisibilityMPH,Wind Direction,Wind SpeedMPH,Gust SpeedMPH,PrecipitationIn,Events,Conditions,WindDirDegrees,DateUTC
12:53 AM,26.1,21.9,84,30.27,10.0,Calm,Calm,-,N/A,,Clear,0,2013-03-03 06:53:00
1:53 AM,24.1,21.0,88,30.27,10.0,Calm,Calm,-,N/A,,Clear,0,2013-03-03 07:53:00
2:53 AM,25.0,21.0,85,30.26,5.0,Calm,Calm,-,N/A,,Clear,0,2013-03-03 08:53:00
3:53 AM,23.0,19.9,88,30.25,8.0,Calm,Calm,-,N/A,,Clear,0,2013-03-03 09:53:00
4:53 AM,24.1,19.9,84,30.26,10.0,Calm,Calm,-,N/A,,Clear,0,2013-03-03 10:53:00
5:53 AM,21.9,19.9,92,30.26,10.0,Calm,Calm,-,N/A,,Clear,0,2013-03-03 11:53:00
6:53 AM,27.0,19.9,75,30.26,10.0,Calm,Calm,-,N/A,,Clear,0,2013-03-03 12:53:00
7:53 AM,32.0,24.1,73,30.28,10.0,SW,3.5,-,N/A,,Clear,230,2013-03-03 13:53:00
8:53 AM,36.0,23.0,59,30.28,10.0,Variable,5.8,-,N/A,,Clear,0,2013-03-03 14:53:00
9:53 AM,39.0,21.9,50,30.28,10.0,SW,5.8,-,N/A,,Clear,230,2013-03-03 15:53:00
10:53 AM,42.1,21.0,43,30.26,10.0,West,4.6,-,N/A,,Clear,280,2013-03-03 16:53:00
11:53 AM,46.9,21.0,36,30.22,10.0,SSE,4.6,-,N/A,,Clear,150,2013-03-03 17:53:00
12:53 PM,50.0,19.9,31,30.18,10.0,West,4.6,-,N/A,,Clear,260,2013-03-03 18:53:00
1:53 PM,52.0,19.9,28,30.14,10.0,Calm,Calm,-,0.00,,Clear,0,2013-03-03 19:53:00
2:53 PM,54.0,19.9,26,30.11,10.0,Variable,3.5,-,N/A,,Clear,0,2013-03-03 20:53:00
3:53 PM,55.0,23.0,29,30.08,10.0,South,8.1,-,N/A,,Clear,170,2013-03-03 21:53:00
4:53 PM,55.0,23.0,29,30.07,10.0,South,8.1,-,N/A,,Clear,180,2013-03-03 22:53:00
5:53 PM,50.0,28.9,44,30.07,10.0,SSE,10.4,-,N/A,,Clear,150,2013-03-03 23:53:00
6:53 PM,46.9,30.0,52,30.07,10.0,SSE,6.9,-,N/A,,Clear,150,2013-03-04 00:53:00
7:53 PM,45.0,28.9,53,30.06,10.0,SSE,5.8,-,N/A,,Clear,160,2013-03-04 01:53:00
8:53 PM,43.0,28.9,58,30.06,10.0,SE,3.5,-,N/A,,Clear,140,2013-03-04 02:53:00
9:53 PM,43.0,30.0,60,30.05,10.0,SSE,3.5,-,N/A,,Clear,160,2013-03-04 03:53:00
10:53 PM,42.1,30.0,62,30.05,10.0,SSE,4.6,-,N/A,,Clear,160,2013-03-04 04:53:00
11:53 PM,43.0,30.0,60,30.02,10.0,South,8.1,-,N/A,,Clear,170,2013-03-04 05:53:00